createdAt,value
2022-09-15T00:02:04.249Z,99.90
2022-09-15T00:04:31.305Z,99.90
2022-09-15T00:06:57.979Z,99.90
2022-09-15T00:09:24.604Z,99.90
2022-09-15T00:11:51.251Z,99.90
2022-09-15T00:14:18.304Z,99.90
2022-09-15T00:16:45.008Z,99.90
2022-09-15T00:19:11.744Z,99.90
2022-09-15T00:21:40.924Z,99.90
2022-09-15T00:24:08.854Z,99.90
2022-09-15T00:26:36.206Z,99.90
2022-09-15T00:29:03.822Z,99.90
2022-09-15T00:31:31.859Z,99.90
2022-09-15T00:34:02.595Z,99.90
2022-09-15T00:36:29.449Z,99.90
2022-09-15T00:38:57.697Z,99.90
2022-09-15T00:41:25.423Z,99.90
2022-09-15T00:43:59.047Z,99.90
2022-09-15T00:46:31.793Z,99.90
2022-09-15T00:49:04.597Z,99.90
2022-09-15T00:51:47.621Z,99.90
2022-09-15T00:54:21.844Z,99.90
2022-09-15T00:56:51.432Z,99.90
2022-09-15T00:59:21.487Z,99.90
2022-09-15T01:01:52.236Z,99.90
2022-09-15T01:04:19.432Z,99.90
2022-09-15T01:06:55.052Z,99.90
2022-09-15T01:09:33.222Z,99.90
2022-09-15T01:12:00.781Z,99.90
2022-09-15T01:14:27.479Z,99.90
2022-09-15T01:17:18.148Z,99.90
2022-09-15T01:20:22.350Z,99.90
2022-09-15T01:23:11.477Z,99.90
2022-09-15T01:25:59.656Z,99.90
2022-09-15T01:29:04.410Z,99.90
2022-09-15T01:32:03.573Z,99.90
2022-09-15T01:34:37.512Z,99.90
2022-09-15T01:37:11.209Z,99.90
2022-09-15T01:39:41.633Z,99.90
2022-09-15T01:42:12.561Z,99.90
2022-09-15T01:44:47.954Z,99.90
2022-09-15T01:47:17.976Z,99.90
2022-09-15T01:49:55.438Z,99.90
2022-09-15T01:52:24.027Z,99.90
2022-09-15T01:54:55.182Z,99.90
2022-09-15T01:57:22.561Z,99.90
2022-09-15T01:59:49.959Z,99.90
2022-09-15T02:02:22.609Z,99.90
2022-09-15T02:05:01.368Z,99.90
2022-09-15T02:07:51.838Z,99.90
2022-09-15T02:11:04.111Z,99.90
2022-09-15T02:13:39.288Z,99.90
2022-09-15T02:16:15.268Z,99.90
2022-09-15T02:19:11.139Z,99.90
2022-09-15T02:22:17.529Z,99.90
2022-09-15T02:24:53.707Z,99.90
2022-09-15T02:27:24.769Z,99.90
2022-09-15T02:29:54.864Z,99.90
2022-09-15T02:32:25.155Z,99.90
2022-09-15T02:34:56.701Z,99.90
2022-09-15T02:37:24.188Z,99.90
2022-09-15T02:39:58.030Z,99.90
2022-09-15T02:42:27.314Z,99.90
2022-09-15T02:44:54.477Z,99.90
2022-09-15T02:47:21.402Z,99.90
2022-09-15T02:49:48.081Z,99.90
2022-09-15T02:52:15.168Z,99.90
2022-09-15T02:54:41.830Z,99.90
2022-09-15T02:57:09.182Z,99.90
2022-09-15T02:59:55.403Z,99.90
2022-09-15T03:02:22.790Z,99.90
2022-09-15T03:04:50.778Z,99.90
2022-09-15T03:07:18.644Z,99.90
2022-09-15T03:09:45.515Z,99.90
2022-09-15T03:12:12.314Z,99.90
2022-09-15T03:14:38.941Z,99.90
2022-09-15T03:17:05.851Z,99.90
2022-09-15T03:19:32.452Z,99.90
2022-09-15T03:21:59.075Z,99.90
2022-09-15T03:24:27.204Z,99.90
2022-09-15T03:26:53.869Z,99.90
2022-09-15T03:29:20.515Z,99.90
2022-09-15T03:31:47.312Z,99.90
2022-09-15T03:34:13.986Z,99.90
2022-09-15T03:36:41.150Z,99.90
2022-09-15T03:39:07.833Z,99.90
2022-09-15T03:41:34.463Z,99.90
2022-09-15T03:44:01.153Z,99.90
2022-09-15T03:46:27.851Z,99.90
2022-09-15T03:48:56.579Z,99.90
2022-09-15T03:51:23.725Z,99.90
2022-09-15T03:53:50.532Z,99.90
2022-09-15T03:56:33.130Z,99.90
2022-09-15T03:59:05.663Z,99.90
2022-09-15T04:01:32.676Z,99.90
2022-09-15T04:03:59.649Z,99.90
2022-09-15T04:06:26.616Z,99.90
2022-09-15T04:08:54.213Z,99.90
2022-09-15T04:11:22.594Z,99.90
2022-09-15T04:13:49.492Z,99.90
2022-09-15T04:16:18.713Z,99.90
2022-09-15T04:18:46.006Z,99.90
2022-09-15T04:21:15.867Z,99.90
2022-09-15T04:23:43.166Z,99.90
2022-09-15T04:26:22.699Z,99.90
2022-09-15T04:28:49.876Z,99.90
2022-09-15T04:31:17.971Z,99.90
2022-09-15T04:33:45.661Z,99.90
2022-09-15T04:36:15.075Z,99.90
2022-09-15T04:38:42.448Z,99.90
2022-09-15T04:41:11.079Z,99.90
2022-09-15T04:43:37.975Z,99.90
2022-09-15T04:46:05.452Z,99.90
2022-09-15T04:48:32.463Z,99.90
2022-09-15T04:51:03.702Z,99.90
2022-09-15T04:53:30.914Z,99.90
2022-09-15T04:56:09.664Z,99.90
2022-09-15T04:58:41.527Z,99.90
2022-09-15T05:01:17.364Z,99.90
2022-09-15T05:03:45.193Z,99.90
2022-09-15T05:06:14.824Z,99.90
2022-09-15T05:08:41.545Z,99.90
2022-09-15T05:11:11.754Z,99.90
2022-09-15T05:13:39.534Z,99.90
2022-09-15T05:16:15.405Z,99.90
2022-09-15T05:18:43.408Z,99.90
2022-09-15T05:21:12.084Z,99.90
2022-09-15T05:23:39.977Z,99.90
2022-09-15T05:26:11.469Z,99.90
2022-09-15T05:28:38.879Z,99.90
2022-09-15T05:31:17.679Z,99.90
2022-09-15T05:33:45.706Z,99.90
2022-09-15T05:36:14.269Z,99.90
2022-09-15T05:38:41.275Z,99.90
2022-09-15T05:41:11.356Z,99.90
2022-09-15T05:43:39.388Z,99.90
2022-09-15T05:46:07.611Z,99.90
2022-09-15T05:48:34.941Z,99.90
2022-09-15T05:51:02.341Z,99.90
2022-09-15T05:53:29.255Z,99.90
2022-09-15T05:56:01.072Z,99.90
2022-09-15T05:58:28.020Z,99.90
2022-09-15T06:00:55.639Z,99.90
2022-09-15T06:03:27.415Z,99.90
2022-09-15T06:06:01.753Z,99.90
2022-09-15T06:08:36.613Z,99.90
2022-09-15T06:11:09.711Z,99.90
2022-09-15T06:13:36.746Z,99.90
2022-09-15T06:16:12.557Z,99.90
2022-09-15T06:18:39.980Z,99.90
2022-09-15T06:21:09.068Z,99.90
2022-09-15T06:23:36.969Z,99.90
2022-09-15T06:26:06.164Z,99.90
2022-09-15T06:28:33.757Z,99.90
2022-09-15T06:31:00.467Z,99.90
2022-09-15T06:33:27.574Z,99.90
2022-09-15T06:35:54.388Z,99.90
2022-09-15T06:38:21.012Z,99.90
2022-09-15T06:40:59.740Z,99.90
2022-09-15T06:43:26.516Z,99.90
2022-09-15T06:45:53.474Z,99.90
2022-09-15T06:48:24.941Z,99.90
2022-09-15T06:50:55.968Z,99.90
2022-09-15T06:53:22.774Z,99.90
2022-09-15T06:55:49.781Z,99.90
2022-09-15T06:58:17.054Z,99.90
2022-09-15T07:00:43.844Z,99.90
2022-09-15T07:03:10.621Z,99.90
2022-09-15T07:05:37.519Z,99.90
2022-09-15T07:08:04.365Z,99.90
2022-09-15T07:10:31.011Z,99.90
2022-09-15T07:12:58.848Z,99.90
2022-09-15T07:15:27.313Z,99.90
2022-09-15T07:17:54.049Z,99.90
2022-09-15T07:20:20.703Z,99.90
2022-09-15T07:22:47.555Z,99.90
2022-09-15T07:25:14.219Z,99.90
2022-09-15T07:27:40.925Z,99.90
2022-09-15T07:30:08.511Z,99.90
2022-09-15T07:32:35.235Z,99.90
2022-09-15T07:35:02.291Z,99.90
2022-09-15T07:37:30.395Z,99.90
2022-09-15T07:39:57.038Z,99.90
2022-09-15T07:42:23.803Z,99.90
2022-09-15T07:44:50.416Z,99.90
2022-09-15T07:47:17.059Z,99.90
2022-09-15T07:49:43.794Z,99.90
2022-09-15T07:52:12.751Z,99.90
2022-09-15T07:54:39.487Z,99.90
2022-09-15T07:57:06.414Z,99.90
2022-09-15T07:59:33.178Z,99.90
2022-09-15T08:01:59.793Z,99.90
2022-09-15T08:04:26.578Z,99.90
2022-09-15T08:06:53.235Z,99.90
2022-09-15T08:09:20.288Z,99.90
2022-09-15T08:11:46.945Z,99.90
2022-09-15T08:14:13.676Z,99.90
2022-09-15T08:16:40.293Z,99.90
2022-09-15T08:19:06.956Z,99.90
2022-09-15T08:21:33.565Z,99.90
2022-09-15T08:24:01.267Z,99.90
2022-09-15T08:26:29.288Z,99.90
2022-09-15T08:28:56.242Z,99.90
2022-09-15T08:31:26.359Z,99.90
2022-09-15T08:33:54.919Z,99.90
2022-09-15T08:36:22.429Z,99.90
2022-09-15T08:38:49.059Z,99.90
2022-09-15T08:41:26.835Z,99.90
2022-09-15T08:44:31.944Z,99.90
2022-09-15T08:47:09.363Z,99.90
2022-09-15T08:50:17.555Z,99.90
2022-09-15T08:53:06.668Z,99.90
2022-09-15T08:55:53.351Z,99.90
2022-09-15T08:58:24.056Z,99.90
2022-09-15T09:00:59.612Z,99.90
2022-09-15T09:03:42.892Z,99.90
2022-09-15T09:06:19.381Z,99.90
2022-09-15T09:08:51.031Z,99.90
2022-09-15T09:11:55.323Z,99.90
2022-09-15T09:14:25.025Z,99.90
2022-09-15T09:17:17.914Z,99.90
2022-09-15T09:19:50.266Z,99.90
2022-09-15T09:22:22.883Z,99.90
2022-09-15T09:24:56.592Z,99.90
2022-09-15T09:27:28.728Z,99.90
2022-09-15T09:30:04.347Z,99.90
2022-09-15T09:32:46.555Z,99.90
2022-09-15T09:35:21.944Z,99.90
2022-09-15T09:37:50.925Z,99.90
2022-09-15T09:40:17.916Z,99.90
2022-09-15T09:42:45.325Z,99.90
2022-09-15T09:45:16.175Z,99.90
2022-09-15T09:47:49.110Z,99.90
2022-09-15T09:50:34.661Z,99.90
2022-09-15T09:53:17.144Z,99.90
2022-09-15T09:55:45.775Z,99.90
2022-09-15T09:58:17.471Z,99.90
2022-09-15T10:00:44.458Z,99.90
2022-09-15T10:03:29.262Z,99.90
2022-09-15T10:06:27.026Z,99.90
2022-09-15T10:08:59.242Z,99.90
2022-09-15T10:11:41.117Z,99.90
2022-09-15T10:14:27.808Z,99.90
2022-09-15T10:16:58.631Z,99.90
2022-09-15T10:19:26.544Z,99.90
2022-09-15T10:21:53.612Z,99.90
2022-09-15T10:24:39.699Z,99.90
2022-09-15T10:27:25.955Z,99.90
2022-09-15T10:29:53.205Z,99.90
2022-09-15T10:32:25.365Z,99.90
2022-09-15T10:35:06.905Z,99.90
2022-09-15T10:37:52.556Z,99.90
2022-09-15T10:40:43.242Z,99.90
2022-09-15T10:43:22.487Z,99.90
2022-09-15T10:45:59.624Z,99.90
2022-09-15T10:48:43.735Z,99.90
2022-09-15T10:51:19.615Z,99.60
2022-09-15T10:54:04.599Z,99.90
2022-09-15T10:56:41.644Z,96.10
2022-09-15T10:59:29.399Z,96.70
2022-09-15T11:01:59.675Z,95.80
2022-09-15T11:04:31.895Z,95.40
2022-09-15T11:07:26.427Z,96.40
2022-09-15T11:10:17.911Z,92.50
2022-09-15T11:13:12.124Z,96.00
2022-09-15T11:15:51.099Z,94.60
2022-09-15T11:18:44.198Z,94.50
2022-09-15T11:21:21.711Z,91.70
2022-09-15T11:23:54.371Z,92.50
2022-09-15T11:26:27.794Z,94.50
2022-09-15T11:29:05.399Z,94.50
2022-09-15T11:31:40.140Z,94.80
2022-09-15T11:34:22.437Z,93.50
2022-09-15T11:37:27.661Z,93.40
2022-09-15T11:40:03.887Z,90.70
2022-09-15T11:42:52.064Z,90.10
2022-09-15T11:45:27.697Z,84.60
2022-09-15T11:48:04.227Z,79.50
2022-09-15T11:50:34.903Z,78.90
2022-09-15T11:53:22.027Z,78.70
2022-09-15T11:55:54.991Z,80.10
2022-09-15T11:58:53.858Z,81.30
2022-09-15T12:01:25.056Z,79.20
2022-09-15T12:04:08.429Z,80.40
2022-09-15T12:06:42.015Z,78.70
2022-09-15T12:09:17.484Z,80.80
2022-09-15T12:11:47.548Z,71.20
2022-09-15T12:14:28.561Z,74.00
2022-09-15T12:16:57.802Z,72.10
2022-09-15T12:19:36.454Z,71.50
2022-09-15T12:22:30.213Z,62.00
2022-09-15T12:25:10.540Z,55.00
2022-09-15T12:27:37.216Z,57.70
2022-09-15T12:30:05.791Z,57.50
2022-09-15T12:32:34.974Z,57.30
2022-09-15T12:35:04.192Z,56.10
2022-09-15T12:37:37.271Z,54.30
2022-09-15T12:40:07.449Z,53.40
2022-09-15T12:42:36.954Z,54.20
2022-09-15T12:45:27.260Z,55.40
2022-09-15T12:48:22.288Z,57.40
2022-09-15T12:50:59.558Z,56.70
2022-09-15T12:53:37.801Z,56.10
2022-09-15T12:56:11.570Z,55.10
2022-09-15T12:58:39.885Z,55.80
2022-09-15T13:01:19.117Z,55.00
2022-09-15T13:03:46.286Z,54.10
2022-09-15T13:06:19.319Z,56.10
2022-09-15T13:08:47.323Z,58.30
2022-09-15T13:14:32.907Z,60.10
2022-09-15T13:17:22.500Z,62.10
2022-09-15T13:19:52.608Z,67.10
2022-09-15T13:22:52.747Z,69.70
2022-09-15T13:25:26.106Z,71.40
2022-09-15T13:27:56.631Z,71.10
2022-09-15T13:30:36.272Z,72.20
2022-09-15T13:40:07.041Z,73.30
2022-09-15T13:42:57.563Z,72.50
2022-09-15T13:46:05.340Z,73.00
2022-09-15T13:49:00.444Z,74.30
2022-09-15T13:51:29.875Z,78.20
2022-09-15T13:54:06.827Z,78.40
2022-09-15T13:56:39.473Z,79.70
2022-09-15T13:59:16.495Z,81.50
2022-09-15T14:01:44.528Z,79.60
2022-09-15T14:04:19.828Z,77.70
2022-09-15T14:06:49.912Z,73.60
2022-09-15T14:09:21.405Z,71.50
2022-09-15T14:11:53.969Z,72.10
2022-09-15T14:14:55.540Z,71.80
2022-09-15T14:17:30.082Z,71.40
2022-09-15T14:19:58.733Z,73.60
2022-09-15T14:22:30.240Z,74.30
2022-09-15T14:24:59.209Z,81.30
2022-09-15T14:27:29.053Z,89.10
2022-09-15T14:29:57.780Z,89.90
2022-09-15T14:32:27.857Z,90.10
2022-09-15T14:34:59.794Z,90.60
2022-09-15T14:37:34.728Z,87.40
2022-09-15T14:40:16.526Z,86.20
2022-09-15T14:42:43.517Z,85.20
2022-09-15T14:48:03.372Z,81.20
2022-09-15T14:50:33.180Z,72.40
2022-09-15T14:53:18.444Z,71.70
2022-09-15T14:56:09.406Z,74.00
2022-09-15T14:58:45.520Z,74.40
2022-09-15T15:01:39.736Z,71.90
2022-09-15T15:04:28.075Z,72.80
2022-09-15T15:06:54.807Z,75.00
2022-09-15T15:09:37.556Z,70.90
2022-09-15T15:12:37.260Z,69.70
2022-09-15T15:15:05.567Z,71.50
2022-09-15T15:17:37.787Z,70.70
2022-09-15T15:20:10.561Z,70.90
2022-09-15T15:22:38.388Z,69.60
2022-09-15T15:25:20.645Z,69.80
2022-09-15T15:27:51.207Z,70.90
2022-09-15T15:30:23.944Z,72.60
2022-09-15T15:32:50.784Z,73.80
2022-09-15T15:35:18.582Z,72.00
2022-09-15T15:37:45.894Z,73.60
2022-09-15T15:40:20.429Z,75.00
2022-09-15T15:43:02.136Z,77.10
2022-09-15T15:45:31.323Z,78.30
2022-09-15T15:47:58.259Z,78.40
2022-09-15T15:50:27.452Z,79.20
2022-09-15T15:52:54.720Z,79.40
2022-09-15T15:55:23.840Z,80.30
2022-09-15T15:57:55.417Z,81.00
2022-09-15T16:00:25.711Z,80.90
2022-09-15T16:02:53.113Z,84.10
2022-09-15T16:05:22.022Z,86.60
2022-09-15T16:07:50.836Z,87.50
2022-09-15T16:10:20.193Z,87.90
2022-09-15T16:12:46.877Z,87.10
2022-09-15T16:15:16.771Z,87.60
2022-09-15T16:17:46.699Z,89.30
2022-09-15T16:20:15.903Z,90.80
2022-09-15T16:22:43.274Z,92.20
2022-09-15T16:25:36.805Z,93.50
2022-09-15T16:28:04.158Z,94.90
2022-09-15T16:30:31.474Z,95.40
2022-09-15T16:32:58.913Z,96.50
2022-09-15T16:35:41.570Z,97.80
2022-09-15T16:38:08.679Z,95.90
2022-09-15T16:40:36.982Z,96.10
2022-09-15T16:43:04.869Z,95.80
2022-09-15T16:45:39.965Z,93.50
2022-09-15T16:48:08.154Z,93.60
2022-09-15T16:50:35.037Z,92.50
2022-09-15T16:53:01.993Z,92.10
2022-09-15T16:55:42.720Z,93.30
2022-09-15T16:58:09.626Z,93.80
2022-09-15T17:00:37.498Z,94.00
2022-09-15T17:03:06.791Z,94.80
2022-09-15T17:05:48.289Z,95.40
2022-09-15T17:08:15.287Z,96.20
2022-09-15T17:10:42.004Z,93.80
2022-09-15T17:13:12.063Z,91.50
2022-09-15T17:15:40.494Z,91.60
2022-09-15T17:18:09.831Z,91.50
2022-09-15T17:20:39.375Z,91.70
2022-09-15T17:23:27.372Z,91.00
2022-09-15T17:25:58.264Z,92.20
2022-09-15T17:28:30.993Z,92.50
2022-09-15T17:31:02.778Z,93.00
2022-09-15T17:33:31.225Z,93.50
2022-09-15T17:35:58.795Z,93.30
2022-09-15T17:38:25.787Z,94.00
2022-09-15T17:40:55.095Z,94.80
2022-09-15T17:43:30.402Z,95.30
2022-09-15T17:45:57.486Z,96.10
2022-09-15T17:48:25.120Z,96.80
2022-09-15T17:50:52.235Z,97.70
2022-09-15T17:53:26.457Z,98.90
2022-09-15T17:55:54.813Z,99.50
2022-09-15T17:58:22.916Z,99.90
2022-09-15T18:00:50.285Z,99.90
2022-09-15T18:03:29.359Z,99.90
2022-09-15T18:05:58.416Z,99.90
2022-09-15T18:08:26.212Z,99.90
2022-09-15T18:10:53.387Z,99.90
2022-09-15T18:13:26.967Z,99.90
2022-09-15T18:15:54.620Z,99.90
2022-09-15T18:18:24.390Z,99.90
2022-09-15T18:20:53.046Z,99.90
2022-09-15T18:23:22.098Z,99.90
2022-09-15T18:25:49.794Z,99.90
2022-09-15T18:28:17.201Z,99.90
2022-09-15T18:30:46.682Z,99.90
2022-09-15T18:33:24.675Z,99.90
2022-09-15T18:35:56.456Z,99.90
2022-09-15T18:38:23.701Z,99.90
2022-09-15T18:40:57.364Z,99.90
2022-09-15T18:43:26.383Z,99.90
2022-09-15T18:46:02.378Z,99.90
2022-09-15T18:48:29.331Z,99.90
2022-09-15T18:50:56.305Z,99.90
2022-09-15T18:53:23.346Z,99.90
2022-09-15T18:55:50.111Z,99.90
2022-09-15T18:58:18.991Z,99.90
2022-09-15T19:00:46.499Z,99.90
2022-09-15T19:03:14.028Z,99.90
2022-09-15T19:05:40.712Z,99.90
2022-09-15T19:08:09.018Z,99.90
2022-09-15T19:10:35.901Z,99.90
2022-09-15T19:13:02.629Z,99.90
2022-09-15T19:15:31.190Z,99.90
2022-09-15T19:17:57.897Z,99.90
2022-09-15T19:20:24.622Z,99.90
2022-09-15T19:22:51.587Z,99.90
2022-09-15T19:25:18.740Z,99.90
2022-09-15T19:27:45.423Z,99.90
2022-09-15T19:30:12.532Z,99.90
2022-09-15T19:32:40.132Z,99.90
2022-09-15T19:35:08.120Z,99.90
2022-09-15T19:37:39.657Z,99.90
2022-09-15T19:40:09.710Z,99.90
2022-09-15T19:42:38.385Z,99.90
2022-09-15T19:45:05.866Z,99.90
2022-09-15T19:47:32.496Z,99.90
2022-09-15T19:49:59.263Z,99.90
2022-09-15T19:52:26.770Z,99.90
2022-09-15T19:54:53.407Z,99.90
2022-09-15T19:57:21.068Z,99.90
2022-09-15T19:59:47.810Z,99.90
2022-09-15T20:02:14.508Z,99.90
2022-09-15T20:04:41.666Z,99.90
2022-09-15T20:07:08.279Z,99.90
2022-09-15T20:09:35.362Z,99.90
2022-09-15T20:12:05.244Z,99.90
2022-09-15T20:14:31.983Z,99.90
2022-09-15T20:17:01.145Z,99.90
2022-09-15T20:19:28.994Z,99.90
2022-09-15T20:21:56.195Z,99.90
2022-09-15T20:24:24.108Z,99.90
2022-09-15T20:26:51.530Z,99.90
2022-09-15T20:29:19.084Z,99.90
2022-09-15T20:31:46.968Z,99.90
2022-09-15T20:34:13.845Z,99.90
2022-09-15T20:36:40.776Z,99.90
2022-09-15T20:39:12.750Z,99.90
2022-09-15T20:41:40.175Z,99.90
2022-09-15T20:44:09.342Z,99.90
2022-09-15T20:46:36.447Z,99.90
2022-09-15T20:49:04.243Z,99.90
2022-09-15T20:51:33.892Z,99.90
2022-09-15T20:54:01.934Z,99.90
2022-09-15T20:56:29.978Z,99.90
2022-09-15T20:58:58.530Z,99.90
2022-09-15T21:01:32.332Z,99.90
2022-09-15T21:03:59.189Z,99.90
2022-09-15T21:06:27.793Z,99.90
2022-09-15T21:08:56.454Z,99.90
2022-09-15T21:11:24.594Z,99.90
2022-09-15T21:13:51.263Z,99.90
2022-09-15T21:16:20.623Z,99.90
2022-09-15T21:18:48.557Z,99.90
2022-09-15T21:21:26.209Z,99.90
2022-09-15T21:23:58.583Z,99.90
2022-09-15T21:26:26.089Z,99.90
2022-09-15T21:28:54.353Z,99.90
2022-09-15T21:31:30.119Z,99.90
2022-09-15T21:33:58.085Z,99.90
2022-09-15T21:36:28.055Z,99.90
2022-09-15T21:38:56.364Z,99.90
2022-09-15T21:41:26.085Z,99.90
2022-09-15T21:43:54.970Z,99.90
2022-09-15T21:46:24.298Z,99.90
2022-09-15T21:48:51.733Z,99.90
2022-09-15T21:51:24.578Z,99.90
2022-09-15T21:53:56.406Z,99.90
2022-09-15T21:56:24.555Z,99.90
2022-09-15T21:58:51.236Z,99.90
2022-09-15T22:01:29.714Z,99.90
2022-09-15T22:04:01.605Z,99.90
2022-09-15T22:06:33.308Z,99.90
2022-09-15T22:09:10.178Z,99.90
2022-09-15T22:11:39.284Z,99.90
2022-09-15T22:14:08.261Z,99.90
2022-09-15T22:16:39.708Z,99.90
2022-09-15T22:19:07.676Z,99.90
2022-09-15T22:21:36.780Z,99.90
2022-09-15T22:24:06.747Z,99.90
2022-09-15T22:26:35.807Z,99.90
2022-09-15T22:29:02.737Z,99.90
2022-09-15T22:31:29.875Z,99.90
2022-09-15T22:33:57.297Z,99.90
2022-09-15T22:36:29.599Z,99.90
2022-09-15T22:39:03.716Z,99.90
2022-09-15T22:41:32.314Z,99.90
2022-09-15T22:43:58.977Z,99.90
2022-09-15T22:46:25.797Z,99.90
2022-09-15T22:48:52.986Z,99.90
2022-09-15T22:51:19.871Z,99.90
2022-09-15T22:53:46.906Z,99.90
2022-09-15T22:56:19.699Z,99.90
2022-09-15T22:58:48.325Z,99.90
2022-09-15T23:01:17.994Z,99.90
2022-09-15T23:03:47.494Z,99.90
2022-09-15T23:06:14.427Z,99.90
2022-09-15T23:08:41.236Z,99.90
2022-09-15T23:11:12.212Z,99.90
2022-09-15T23:13:39.635Z,99.90
2022-09-15T23:16:06.949Z,99.90
2022-09-15T23:18:34.725Z,99.90
2022-09-15T23:21:07.951Z,99.90
2022-09-15T23:23:36.059Z,99.90
2022-09-15T23:26:04.226Z,99.90
2022-09-15T23:28:31.463Z,99.90
2022-09-15T23:30:58.968Z,99.90
2022-09-15T23:33:27.528Z,99.90
2022-09-15T23:35:56.272Z,99.90
2022-09-15T23:38:22.937Z,99.90
2022-09-15T23:40:50.490Z,99.90
2022-09-15T23:43:18.617Z,99.90
2022-09-15T23:45:46.549Z,99.90
2022-09-15T23:48:13.879Z,99.90
2022-09-15T23:50:40.977Z,99.90
2022-09-15T23:53:08.354Z,99.90
2022-09-15T23:55:35.302Z,99.90
2022-09-15T23:58:02.369Z,99.90
